Time;durP1;ratioP1;P1;durP2;ratioP2;P2;SDS_P1;SDS_P2;PMS_P1;PMS_P2;Temp;Humidity;BMP_temperature;BMP_pressure;BME280_temperature;BME280_humidity;BME280_pressure;Samples;Min_cycle;Max_cycle;Signal;HPM_P1;HPM_P2
2021/08/06 00:01:22;;;;;;;5.35;3.97;;;20.30;99.90;;;;;;5057055;28;20036;-72
2021/08/06 00:03:47;;;;;;;9.88;3.78;;;20.40;99.90;;;;;;5049520;28;20029;-73
2021/08/06 00:06:13;;;;;;;5.68;3.78;;;20.50;99.90;;;;;;5058214;28;20064;-72
2021/08/06 00:08:39;;;;;;;4.25;3.30;;;20.50;99.90;;;;;;5050037;28;20040;-72
2021/08/06 00:11:04;;;;;;;5.93;4.03;;;20.50;99.90;;;;;;5060398;28;20082;-73
2021/08/06 00:13:31;;;;;;;3.88;3.40;;;20.50;99.90;;;;;;5064849;28;20362;-73
2021/08/06 00:15:59;;;;;;;5.55;4.03;;;20.60;99.90;;;;;;5056300;28;20036;-72
2021/08/06 00:18:25;;;;;;;3.75;3.38;;;20.60;99.90;;;;;;5055039;28;20021;-72
2021/08/06 00:20:52;;;;;;;4.88;3.75;;;20.60;99.90;;;;;;5050675;28;20037;-72
2021/08/06 00:23:17;;;;;;;4.30;3.45;;;20.50;99.90;;;;;;5058015;28;20080;-72
2021/08/06 00:25:43;;;;;;;4.03;3.63;;;20.60;99.90;;;;;;5040721;28;20021;-73
2021/08/06 00:28:10;;;;;;;3.83;3.40;;;20.60;99.90;;;;;;5054636;28;20395;-72
2021/08/06 00:30:36;;;;;;;4.68;3.28;;;20.70;99.90;;;;;;5061101;28;20021;-73
2021/08/06 00:33:01;;;;;;;5.72;3.40;;;20.60;99.90;;;;;;5056887;28;20075;-73
2021/08/06 00:35:27;;;;;;;4.10;3.70;;;20.70;99.90;;;;;;5059253;28;20388;-72
2021/08/06 00:37:53;;;;;;;6.80;3.72;;;20.70;99.90;;;;;;5056775;28;20388;-72
2021/08/06 00:40:22;;;;;;;3.78;3.17;;;20.60;99.90;;;;;;5058078;28;20039;-72
2021/08/06 00:42:49;;;;;;;3.70;3.35;;;20.70;99.90;;;;;;5057115;28;20025;-73
2021/08/06 00:45:14;;;;;;;6.28;3.75;;;20.70;99.90;;;;;;5055660;28;20021;-73
2021/08/06 00:47:40;;;;;;;3.92;3.28;;;20.60;99.90;;;;;;5045977;28;20376;-72
2021/08/06 00:50:07;;;;;;;4.90;3.55;;;20.50;99.90;;;;;;5051885;28;20503;-72
2021/08/06 00:52:32;;;;;;;3.22;2.85;;;20.50;99.90;;;;;;5046690;28;20396;-73
2021/08/06 00:54:58;;;;;;;4.93;3.40;;;20.50;99.90;;;;;;5053897;28;20025;-73
2021/08/06 00:57:23;;;;;;;3.55;3.22;;;20.60;99.90;;;;;;5048099;28;20543;-73
2021/08/06 00:59:49;;;;;;;4.00;3.13;;;20.60;99.90;;;;;;5061143;28;20030;-73
2021/08/06 01:02:25;;;;;;;6.43;3.30;;;20.60;99.90;;;;;;5051074;28;20043;-73
2021/08/06 01:05:08;;;;;;;3.40;3.08;;;20.70;99.90;;;;;;5046718;28;20032;-73
2021/08/06 01:07:41;;;;;;;3.08;2.85;;;20.60;99.90;;;;;;5044430;28;20033;-73
2021/08/06 01:10:09;;;;;;;3.92;3.47;;;20.70;99.90;;;;;;5050269;28;20083;-72
2021/08/06 01:12:58;;;;;;;3.85;2.70;;;20.70;99.90;;;;;;5052295;28;20025;-73
2021/08/06 01:15:25;;;;;;;3.92;2.92;;;20.70;99.90;;;;;;5049846;28;20044;-73
2021/08/06 01:17:52;;;;;;;2.90;2.60;;;20.60;99.90;;;;;;5032045;28;20031;-73
2021/08/06 01:20:25;;;;;;;3.92;2.55;;;20.50;99.90;;;;;;5048911;28;20025;-73
2021/08/06 01:23:10;;;;;;;4.22;2.85;;;20.50;99.90;;;;;;5062719;28;20555;-73
2021/08/06 01:25:56;;;;;;;4.07;2.50;;;20.60;99.90;;;;;;5058365;28;20101;-73
2021/08/06 01:28:29;;;;;;;2.78;2.50;;;20.60;99.90;;;;;;5057531;28;20033;-73
2021/08/06 01:30:56;;;;;;;3.13;2.72;;;20.60;99.90;;;;;;5062400;28;20025;-73
2021/08/06 01:33:21;;;;;;;4.05;2.60;;;20.60;99.90;;;;;;5061058;28;20381;-73
2021/08/06 01:35:47;;;;;;;3.55;2.58;;;20.60;99.90;;;;;;5058723;28;20028;-73
2021/08/06 01:38:15;;;;;;;3.63;2.90;;;20.60;99.90;;;;;;5059764;28;20078;-73
2021/08/06 01:41:24;;;;;;;2.63;2.42;;;20.50;99.90;;;;;;5052644;28;20404;-73
2021/08/06 01:43:58;;;;;;;3.03;2.70;;;20.60;99.90;;;;;;5037929;28;20037;-73
2021/08/06 01:46:30;;;;;;;2.53;1.80;;;20.50;99.90;;;;;;5056638;28;20037;-73
2021/08/06 01:49:02;;;;;;;2.97;2.30;;;20.50;99.90;;;;;;5065008;28;20017;-73
2021/08/06 01:51:34;;;;;;;4.20;1.80;;;20.50;99.90;;;;;;5045854;28;20033;-73
2021/08/06 01:54:01;;;;;;;3.85;1.90;;;20.50;99.90;;;;;;5052536;28;20017;-72
2021/08/06 01:56:28;;;;;;;3.25;2.30;;;20.40;99.90;;;;;;5058049;28;20111;-72
2021/08/06 01:58:56;;;;;;;2.00;1.58;;;20.40;99.90;;;;;;5051834;28;20021;-73
2021/08/06 02:01:23;;;;;;;2.30;2.10;;;20.40;99.90;;;;;;5052084;28;20059;-72
2021/08/06 02:03:49;;;;;;;1.95;1.55;;;20.40;99.90;;;;;;5051910;28;20025;-73
2021/08/06 02:06:17;;;;;;;2.60;1.40;;;20.30;99.90;;;;;;5051039;28;20037;-72
2021/08/06 02:08:44;;;;;;;2.63;1.50;;;20.30;99.90;;;;;;5059396;28;20063;-73
2021/08/06 02:11:11;;;;;;;1.52;1.42;;;20.30;99.90;;;;;;5055804;28;20096;-72
2021/08/06 02:13:38;;;;;;;1.55;1.45;;;20.30;99.90;;;;;;5051591;28;20018;-73
2021/08/06 02:16:04;;;;;;;1.40;1.30;;;20.30;99.90;;;;;;5058165;28;20055;-72
2021/08/06 02:18:31;;;;;;;1.35;1.25;;;20.20;99.90;;;;;;5050352;28;20028;-73
2021/08/06 02:21:04;;;;;;;1.65;1.50;;;20.20;99.90;;;;;;5058435;28;20036;-72
2021/08/06 02:23:33;;;;;;;6.07;2.05;;;20.30;99.90;;;;;;5053218;28;20035;-75
2021/08/06 02:26:00;;;;;;;1.92;1.60;;;20.30;99.90;;;;;;5048158;28;20034;-73
2021/08/06 02:28:27;;;;;;;4.82;1.92;;;20.30;99.90;;;;;;5052206;28;20048;-76
2021/08/06 02:30:54;;;;;;;1.90;1.80;;;20.20;99.90;;;;;;5063205;28;20020;-75
2021/08/06 02:33:20;;;;;;;2.05;1.73;;;20.30;99.90;;;;;;5046566;28;20104;-75
2021/08/06 02:35:46;;;;;;;6.38;2.05;;;20.30;99.90;;;;;;5050989;28;20457;-74
2021/08/06 02:38:20;;;;;;;2.10;1.90;;;20.20;99.90;;;;;;5052006;28;20053;-76
2021/08/06 02:40:46;;;;;;;2.08;1.75;;;20.20;99.90;;;;;;5054835;28;20029;-74
2021/08/06 02:43:11;;;;;;;3.58;1.88;;;20.30;99.90;;;;;;5052447;28;20021;-74
2021/08/06 02:45:37;;;;;;;4.50;1.77;;;20.00;99.90;;;;;;5048581;28;20029;-74
2021/08/06 02:48:03;;;;;;;4.32;1.75;;;19.90;99.90;;;;;;5057625;28;20472;-74
2021/08/06 02:50:29;;;;;;;2.35;1.73;;;20.00;99.90;;;;;;5060994;28;20031;-73
2021/08/06 02:52:55;;;;;;;2.55;1.65;;;20.10;99.90;;;;;;5056296;28;20131;-73
2021/08/06 02:55:20;;;;;;;2.13;1.58;;;20.00;99.90;;;;;;5052029;28;20028;-74
2021/08/06 02:57:46;;;;;;;1.67;1.58;;;20.00;99.90;;;;;;5055028;28;20048;-73
2021/08/06 03:00:12;;;;;;;3.80;1.65;;;20.10;99.90;;;;;;5057399;28;20052;-74
2021/08/06 03:02:38;;;;;;;5.75;2.33;;;20.00;99.90;;;;;;5028844;28;20041;-75
2021/08/06 03:05:04;;;;;;;2.00;1.55;;;19.90;99.90;;;;;;5056602;28;20027;-75
2021/08/06 03:07:29;;;;;;;1.83;1.63;;;20.10;99.90;;;;;;5060933;28;20115;-74
2021/08/06 03:09:55;;;;;;;2.53;2.13;;;20.00;99.90;;;;;;5058785;28;20119;-75
2021/08/06 03:12:21;;;;;;;4.88;1.60;;;20.10;99.90;;;;;;5049919;28;20183;-72
2021/08/06 03:14:46;;;;;;;2.70;1.70;;;20.10;99.90;;;;;;5049933;28;20513;-74
2021/08/06 03:17:12;;;;;;;3.50;1.75;;;20.10;99.90;;;;;;5055111;28;20507;-74
2021/08/06 03:19:38;;;;;;;1.90;1.65;;;20.10;99.90;;;;;;5056779;28;20409;-74
2021/08/06 03:22:04;;;;;;;2.05;1.42;;;19.90;99.90;;;;;;5056022;28;20028;-74
2021/08/06 03:24:29;;;;;;;1.52;1.42;;;20.00;99.90;;;;;;5051879;28;20021;-74
2021/08/06 03:26:55;;;;;;;3.22;1.60;;;19.90;99.90;;;;;;5060633;28;20040;-74
2021/08/06 03:29:20;;;;;;;1.95;1.63;;;19.90;99.90;;;;;;5048160;28;20029;-74
2021/08/06 03:31:46;;;;;;;2.20;1.40;;;19.90;99.90;;;;;;5051546;28;20021;-74
2021/08/06 03:34:12;;;;;;;2.35;1.63;;;20.00;99.90;;;;;;5056569;28;20477;-73
2021/08/06 03:36:37;;;;;;;3.05;1.40;;;19.90;99.90;;;;;;5055087;28;20025;-74
2021/08/06 03:39:04;;;;;;;1.90;1.40;;;19.80;99.90;;;;;;5054793;28;20048;-73
2021/08/06 03:41:29;;;;;;;2.83;1.67;;;19.70;99.90;;;;;;5056516;28;20475;-73
2021/08/06 03:43:55;;;;;;;1.95;1.30;;;19.70;99.90;;;;;;5053639;28;20052;-73
2021/08/06 03:46:20;;;;;;;2.60;1.65;;;19.70;99.90;;;;;;5050511;28;20043;-73
2021/08/06 03:48:46;;;;;;;2.67;1.92;;;19.70;99.90;;;;;;5054878;28;20404;-73
2021/08/06 03:51:12;;;;;;;2.90;1.48;;;19.70;99.90;;;;;;5043262;28;20028;-74
2021/08/06 03:53:37;;;;;;;2.58;1.50;;;19.70;99.90;;;;;;5052117;28;20181;-73
2021/08/06 03:56:03;;;;;;;1.58;1.48;;;19.70;99.90;;;;;;5052868;28;20078;-72
2021/08/06 03:58:29;;;;;;;2.17;1.77;;;19.60;99.90;;;;;;5053278;28;20583;-73
2021/08/06 04:00:54;;;;;;;3.63;2.00;;;19.60;99.90;;;;;;5052028;28;20021;-72
2021/08/06 04:03:20;;;;;;;2.00;1.60;;;19.60;99.90;;;;;;5034014;28;20040;-72
2021/08/06 04:05:46;;;;;;;2.10;1.88;;;19.70;99.90;;;;;;5061743;28;20025;-72
2021/08/06 04:08:12;;;;;;;1.95;1.83;;;19.60;99.90;;;;;;5051035;28;20033;-74
2021/08/06 04:10:38;;;;;;;2.55;1.92;;;19.70;99.90;;;;;;5050007;28;20079;-73
2021/08/06 04:13:04;;;;;;;4.57;1.90;;;19.90;99.90;;;;;;5054786;28;20120;-74
2021/08/06 04:15:29;;;;;;;2.05;1.85;;;20.00;99.90;;;;;;5066199;28;20025;-74
2021/08/06 04:17:56;;;;;;;3.03;2.70;;;20.10;99.90;;;;;;5052942;28;20029;-74
2021/08/06 04:20:22;;;;;;;2.33;2.10;;;20.20;99.90;;;;;;5057305;28;20498;-73
2021/08/06 04:22:47;;;;;;;2.47;2.20;;;19.90;99.90;;;;;;5057236;28;20025;-73
2021/08/06 04:25:13;;;;;;;4.75;2.22;;;19.70;99.90;;;;;;5058509;28;20483;-74
2021/08/06 04:27:39;;;;;;;3.05;2.05;;;19.70;99.90;;;;;;5055302;28;20112;-74
2021/08/06 04:30:07;;;;;;;3.10;1.90;;;19.70;99.90;;;;;;5050713;28;20021;-74
2021/08/06 04:32:32;;;;;;;2.95;1.98;;;19.80;99.90;;;;;;5052496;28;20082;-73
2021/08/06 04:34:58;;;;;;;2.65;1.63;;;19.80;99.90;;;;;;5058379;28;20024;-74
2021/08/06 04:37:24;;;;;;;1.70;1.42;;;19.80;99.90;;;;;;5048987;28;20116;-74
2021/08/06 04:39:50;;;;;;;2.28;1.65;;;19.80;99.90;;;;;;5059440;28;20082;-73
2021/08/06 04:42:16;;;;;;;3.40;2.22;;;19.70;99.90;;;;;;5045608;28;20032;-73
2021/08/06 04:44:42;;;;;;;2.20;1.88;;;19.60;99.90;;;;;;5056077;28;20539;-73
2021/08/06 04:47:08;;;;;;;2.10;1.85;;;19.60;99.90;;;;;;5062716;28;20028;-73
2021/08/06 04:49:34;;;;;;;2.67;1.80;;;19.70;99.90;;;;;;5054762;28;20029;-73
2021/08/06 04:52:00;;;;;;;2.20;1.60;;;19.70;99.90;;;;;;5034760;28;20026;-73
2021/08/06 04:54:25;;;;;;;2.17;1.70;;;19.70;99.90;;;;;;5055378;28;20539;-73
2021/08/06 04:56:52;;;;;;;3.88;1.90;;;19.70;99.90;;;;;;5033101;28;20420;-73
2021/08/06 04:59:17;;;;;;;2.90;1.80;;;19.70;99.90;;;;;;5055877;28;20496;-73
2021/08/06 05:01:43;;;;;;;3.45;1.88;;;19.70;99.90;;;;;;5062504;28;20045;-73
2021/08/06 05:04:08;;;;;;;1.85;1.33;;;19.70;99.90;;;;;;5054076;28;20555;-73
2021/08/06 05:06:34;;;;;;;2.83;2.20;;;19.70;99.90;;;;;;5059435;28;20029;-73
2021/08/06 05:09:00;;;;;;;1.65;1.55;;;19.80;99.90;;;;;;5048233;28;20501;-73
2021/08/06 05:11:26;;;;;;;4.13;1.63;;;19.90;99.90;;;;;;5056734;28;20035;-73
2021/08/06 05:13:52;;;;;;;3.30;2.20;;;19.90;99.90;;;;;;5063574;28;20025;-73
2021/08/06 05:16:17;;;;;;;3.38;2.08;;;20.00;99.90;;;;;;5055074;28;20078;-73
2021/08/06 05:18:43;;;;;;;2.10;1.90;;;20.00;99.90;;;;;;5060493;28;20103;-73
2021/08/06 05:21:09;;;;;;;3.92;2.42;;;20.00;99.90;;;;;;5060244;28;20075;-73
2021/08/06 05:23:35;;;;;;;2.42;2.00;;;20.00;99.90;;;;;;5055751;28;20388;-73
2021/08/06 05:26:00;;;;;;;5.45;2.30;;;20.10;99.90;;;;;;5049118;28;20021;-73
2021/08/06 05:28:26;;;;;;;2.92;2.08;;;20.00;99.90;;;;;;5036897;28;20112;-73
2021/08/06 05:30:52;;;;;;;2.50;1.88;;;19.90;99.90;;;;;;5065115;28;20083;-73
2021/08/06 05:33:17;;;;;;;3.03;2.10;;;19.90;99.90;;;;;;5029252;28;20029;-73
2021/08/06 05:35:43;;;;;;;4.88;2.03;;;19.90;99.90;;;;;;5053957;28;20047;-73
2021/08/06 05:38:09;;;;;;;2.58;2.00;;;20.00;99.90;;;;;;5059611;28;20504;-73
2021/08/06 05:40:35;;;;;;;1.88;1.65;;;19.90;99.90;;;;;;5057434;28;20112;-73
2021/08/06 05:43:00;;;;;;;3.85;2.10;;;19.90;99.90;;;;;;5055019;28;20064;-73
2021/08/06 05:45:26;;;;;;;2.00;1.70;;;20.10;99.90;;;;;;5055114;28;20052;-73
2021/08/06 05:47:54;;;;;;;3.83;2.20;;;20.00;99.90;;;;;;5060840;28;20028;-73
2021/08/06 05:50:24;;;;;;;2.75;2.55;;;20.10;99.90;;;;;;5058115;28;20037;-73
2021/08/06 05:52:49;;;;;;;4.82;2.53;;;20.10;99.90;;;;;;5054106;28;20023;-73
2021/08/06 05:55:16;;;;;;;3.45;2.83;;;20.20;99.90;;;;;;5055248;28;20025;-73
2021/08/06 05:57:43;;;;;;;2.80;2.50;;;20.20;99.90;;;;;;5058571;28;20043;-74
2021/08/06 06:00:11;;;;;;;2.40;2.20;;;20.20;99.90;;;;;;5042004;28;20100;-74
2021/08/06 06:02:37;;;;;;;2.80;2.35;;;20.00;99.90;;;;;;5053187;28;20120;-73
2021/08/06 06:05:04;;;;;;;3.78;1.98;;;20.20;99.90;;;;;;5060955;28;20024;-72
2021/08/06 06:07:30;;;;;;;2.05;1.92;;;20.20;99.90;;;;;;5051486;28;20086;-74
2021/08/06 06:09:55;;;;;;;2.53;2.33;;;20.20;99.90;;;;;;5031150;28;20033;-74
2021/08/06 06:12:21;;;;;;;2.30;2.10;;;20.20;99.90;;;;;;5053306;28;20476;-74
2021/08/06 06:14:47;;;;;;;3.35;2.30;;;20.30;99.90;;;;;;5055889;28;20016;-74
2021/08/06 06:17:13;;;;;;;4.20;2.13;;;20.30;99.90;;;;;;5052511;28;20468;-71
2021/08/06 06:19:38;;;;;;;2.70;2.40;;;20.30;99.90;;;;;;5054324;28;20025;-72
2021/08/06 06:22:07;;;;;;;5.00;2.30;;;20.30;99.90;;;;;;5050237;28;20403;-74
2021/08/06 06:24:34;;;;;;;2.50;2.15;;;20.30;99.90;;;;;;5049170;28;20045;-74
2021/08/06 06:27:00;;;;;;;2.17;1.60;;;20.40;99.90;;;;;;5056899;28;20029;-73
2021/08/06 06:29:25;;;;;;;2.55;1.98;;;20.20;99.90;;;;;;5052347;28;20043;-72
2021/08/06 06:31:51;;;;;;;1.83;1.52;;;20.30;99.90;;;;;;5062449;28;20383;-73
2021/08/06 06:34:17;;;;;;;2.22;2.00;;;20.20;99.90;;;;;;5055358;28;20025;-73
2021/08/06 06:36:42;;;;;;;2.10;1.75;;;20.30;99.90;;;;;;5057807;28;20028;-74
2021/08/06 06:39:08;;;;;;;3.13;1.98;;;20.30;99.90;;;;;;5053845;28;20060;-73
2021/08/06 06:41:33;;;;;;;2.28;2.08;;;20.20;99.90;;;;;;5054686;28;20068;-74
2021/08/06 06:43:59;;;;;;;3.65;2.13;;;20.20;99.90;;;;;;5054980;28;20040;-74
2021/08/06 06:46:25;;;;;;;2.65;2.45;;;20.30;99.90;;;;;;5059199;28;20116;-73
2021/08/06 06:48:50;;;;;;;2.10;1.90;;;20.20;99.90;;;;;;5055003;28;20032;-73
2021/08/06 06:51:16;;;;;;;2.15;2.00;;;20.10;99.90;;;;;;5057815;28;20033;-74
2021/08/06 06:53:42;;;;;;;2.55;2.00;;;20.20;99.90;;;;;;5055371;28;20465;-73
2021/08/06 06:56:07;;;;;;;2.70;1.77;;;20.10;99.90;;;;;;5056756;28;20025;-72
2021/08/06 06:58:35;;;;;;;4.22;2.50;;;20.10;99.90;;;;;;5055033;28;20052;-73
2021/08/06 07:01:00;;;;;;;2.05;1.85;;;20.10;99.90;;;;;;5059047;28;20029;-73
2021/08/06 07:03:26;;;;;;;5.63;2.40;;;20.00;99.90;;;;;;5056328;28;20032;-73
2021/08/06 07:05:52;;;;;;;2.53;2.33;;;19.80;99.90;;;;;;5045738;28;20029;-73
2021/08/06 07:08:18;;;;;;;2.88;2.30;;;19.90;99.90;;;;;;5054374;28;20381;-73
2021/08/06 07:10:44;;;;;;;4.93;2.42;;;19.80;99.90;;;;;;5062994;28;20474;-73
2021/08/06 07:13:09;;;;;;;2.92;2.42;;;19.90;99.90;;;;;;5051770;28;20020;-73
2021/08/06 07:15:35;;;;;;;4.35;2.40;;;20.10;99.90;;;;;;5047430;28;20492;-73
2021/08/06 07:18:00;;;;;;;2.65;2.08;;;20.20;99.90;;;;;;5058967;28;20120;-73
2021/08/06 07:20:26;;;;;;;4.53;2.40;;;20.20;99.90;;;;;;5057256;28;20107;-73
2021/08/06 07:22:55;;;;;;;4.47;2.55;;;20.20;99.90;;;;;;5058179;28;20028;-73
2021/08/06 07:25:21;;;;;;;4.22;2.35;;;20.20;99.90;;;;;;5051176;28;20017;-73
2021/08/06 07:27:47;;;;;;;3.10;2.05;;;20.30;99.90;;;;;;5059639;28;20036;-73
2021/08/06 07:30:15;;;;;;;4.05;2.22;;;20.20;99.90;;;;;;5058409;28;20031;-73
2021/08/06 07:32:41;;;;;;;4.25;2.30;;;20.30;99.90;;;;;;5057134;28;20106;-73
2021/08/06 07:35:08;;;;;;;4.05;2.35;;;20.30;99.90;;;;;;5060902;28;20012;-72
2021/08/06 07:37:34;;;;;;;5.45;2.53;;;20.30;99.90;;;;;;5050442;28;20040;-72
2021/08/06 07:40:00;;;;;;;3.50;2.35;;;20.40;99.90;;;;;;5057500;28;20071;-72
2021/08/06 07:42:25;;;;;;;4.95;3.13;;;20.50;99.90;;;;;;5056629;28;20037;-72
2021/08/06 07:44:51;;;;;;;7.68;3.25;;;20.50;99.90;;;;;;5038294;28;20025;-72
2021/08/06 07:47:17;;;;;;;6.13;3.33;;;20.60;99.90;;;;;;5048537;28;20495;-72
2021/08/06 07:49:43;;;;;;;3.25;2.95;;;20.70;99.90;;;;;;5052612;28;20017;-72
2021/08/06 07:52:09;;;;;;;4.50;3.00;;;20.60;99.90;;;;;;5056897;28;20108;-73
2021/08/06 07:54:36;;;;;;;2.65;2.33;;;20.50;99.90;;;;;;5057436;28;20080;-73
2021/08/06 07:57:01;;;;;;;3.75;2.47;;;20.60;99.90;;;;;;5047664;28;20044;-72
2021/08/06 07:59:27;;;;;;;5.88;3.80;;;20.80;99.90;;;;;;5060677;28;20065;-73
2021/08/06 08:01:54;;;;;;;5.25;3.28;;;20.80;99.90;;;;;;5059240;28;20034;-72
2021/08/06 08:04:20;;;;;;;7.80;3.38;;;20.90;99.90;;;;;;5058534;28;20424;-73
2021/08/06 08:06:45;;;;;;;4.88;3.05;;;21.00;99.90;;;;;;5053527;28;20505;-73
2021/08/06 08:09:12;;;;;;;4.22;3.03;;;21.20;99.90;;;;;;5062348;28;20025;-73
2021/08/06 08:11:37;;;;;;;3.47;2.95;;;21.20;99.90;;;;;;5050940;28;20040;-73
2021/08/06 08:14:03;;;;;;;8.43;3.35;;;21.10;99.90;;;;;;5050452;28;20025;-73
2021/08/06 08:16:29;;;;;;;3.97;3.10;;;21.10;99.90;;;;;;5058381;28;20056;-73
2021/08/06 08:18:54;;;;;;;4.10;3.55;;;21.00;99.90;;;;;;5039632;28;20105;-73
2021/08/06 08:21:20;;;;;;;9.43;3.63;;;21.00;99.90;;;;;;5063496;28;20037;-73
2021/08/06 08:23:46;;;;;;;5.78;3.67;;;21.00;99.90;;;;;;5052648;28;20032;-74
2021/08/06 08:26:11;;;;;;;6.70;3.42;;;21.00;99.90;;;;;;5053588;28;20029;-73
2021/08/06 08:28:37;;;;;;;6.18;2.78;;;21.20;99.90;;;;;;5068916;28;20558;-73
2021/08/06 08:31:03;;;;;;;5.50;3.17;;;21.30;99.90;;;;;;5059835;28;20029;-73
2021/08/06 08:33:28;;;;;;;5.38;2.80;;;21.30;99.90;;;;;;5046535;28;20024;-73
2021/08/06 08:35:54;;;;;;;5.35;2.75;;;21.20;99.90;;;;;;5031118;28;20100;-73
2021/08/06 08:38:20;;;;;;;4.60;2.60;;;21.20;99.90;;;;;;5053513;28;20033;-73
2021/08/06 08:40:46;;;;;;;4.88;2.58;;;21.20;99.90;;;;;;5036438;28;20396;-73
2021/08/06 08:43:11;;;;;;;10.00;2.63;;;21.00;99.90;;;;;;5048425;28;20469;-73
2021/08/06 08:45:41;;;;;;;5.07;2.78;;;21.10;99.90;;;;;;5059227;28;20036;-73
2021/08/06 08:48:10;;;;;;;4.20;2.60;;;21.10;99.90;;;;;;5059151;28;20037;-73
2021/08/06 08:50:38;;;;;;;5.70;2.65;;;21.10;99.90;;;;;;5051844;28;20036;-74
2021/08/06 08:53:05;;;;;;;6.40;2.00;;;21.20;99.90;;;;;;5053939;28;20484;-73
2021/08/06 08:55:31;;;;;;;6.25;2.47;;;21.20;99.90;;;;;;5052129;28;20537;-73
2021/08/06 08:57:57;;;;;;;4.13;2.53;;;21.40;99.90;;;;;;5040773;28;20075;-73
2021/08/06 09:00:23;;;;;;;5.28;2.60;;;21.50;99.90;;;;;;5059636;28;20376;-73
2021/08/06 09:02:49;;;;;;;4.05;1.90;;;21.50;99.90;;;;;;5048899;28;20021;-73
2021/08/06 09:05:17;;;;;;;4.05;2.10;;;21.40;99.90;;;;;;5057189;28;20023;-73
2021/08/06 09:07:43;;;;;;;3.72;2.20;;;21.30;99.90;;;;;;5052321;28;20368;-73
2021/08/06 09:10:20;;;;;;;6.43;2.10;;;21.50;99.90;;;;;;5054127;28;20033;-73
2021/08/06 09:12:45;;;;;;;4.80;2.35;;;21.70;99.90;;;;;;5044906;28;20516;-71
2021/08/06 09:15:11;;;;;;;3.72;1.63;;;21.80;99.90;;;;;;5052212;28;20914;-75
2021/08/06 09:17:37;;;;;;;4.97;1.88;;;22.00;99.90;;;;;;5052124;28;20477;-73
2021/08/06 09:20:07;;;;;;;2.28;1.95;;;22.10;99.90;;;;;;5051888;28;20114;-73
2021/08/06 09:22:33;;;;;;;2.00;1.60;;;22.10;99.90;;;;;;5049752;28;20032;-73
2021/08/06 09:25:10;;;;;;;2.63;1.60;;;22.30;99.90;;;;;;5050104;28;20027;-72
2021/08/06 09:27:41;;;;;;;3.15;1.63;;;22.60;99.90;;;;;;5048555;28;20033;-72
2021/08/06 09:30:35;;;;;;;6.45;1.95;;;22.50;99.90;;;;;;5050520;28;20084;-73
2021/08/06 09:33:00;;;;;;;2.40;1.67;;;22.50;99.90;;;;;;5047957;28;20049;-72
2021/08/06 09:35:29;;;;;;;2.25;1.60;;;22.50;99.90;;;;;;5057128;28;20131;-72
2021/08/06 09:37:56;;;;;;;4.57;1.52;;;22.50;99.90;;;;;;5052352;28;20017;-72
2021/08/06 09:40:27;;;;;;;4.40;1.60;;;22.60;99.90;;;;;;5051332;28;20059;-73
2021/08/06 09:42:59;;;;;;;2.72;1.63;;;22.60;99.90;;;;;;5053349;28;20029;-73
2021/08/06 09:45:36;;;;;;;2.85;1.77;;;22.80;99.90;;;;;;5051431;28;20533;-72
2021/08/06 09:48:03;;;;;;;6.10;1.60;;;22.80;99.90;;;;;;5047653;28;20029;-72
2021/08/06 09:50:37;;;;;;;3.25;1.90;;;22.70;99.90;;;;;;5057764;28;20020;-73
2021/08/06 09:53:04;;;;;;;3.90;1.85;;;22.90;99.90;;;;;;5051737;28;20104;-72
2021/08/06 09:55:32;;;;;;;4.25;1.58;;;22.90;99.90;;;;;;5045978;28;20029;-73
2021/08/06 09:58:00;;;;;;;2.45;1.02;;;22.90;99.90;;;;;;5055826;28;20045;-73
2021/08/06 10:00:27;;;;;;;2.63;1.85;;;23.30;99.90;;;;;;5059072;28;20028;-73
2021/08/06 10:02:54;;;;;;;2.75;1.67;;;23.10;99.90;;;;;;5049936;28;20121;-73
2021/08/06 10:05:23;;;;;;;4.20;1.80;;;23.00;99.90;;;;;;5030311;28;20036;-73
2021/08/06 10:07:51;;;;;;;1.77;1.58;;;22.90;99.90;;;;;;5051210;28;20108;-73
2021/08/06 10:10:18;;;;;;;1.63;1.50;;;22.80;99.90;;;;;;5052570;28;20024;-73
2021/08/06 10:12:44;;;;;;;4.05;1.55;;;22.90;99.90;;;;;;5043085;28;20083;-73
2021/08/06 10:15:11;;;;;;;4.57;2.00;;;22.80;99.90;;;;;;5054157;28;20040;-72
2021/08/06 10:17:37;;;;;;;5.00;2.03;;;22.80;99.90;;;;;;5057012;28;20029;-73
2021/08/06 10:20:04;;;;;;;3.40;2.00;;;22.70;99.90;;;;;;5051758;28;20063;-72
2021/08/06 10:22:30;;;;;;;3.67;2.47;;;22.70;99.90;;;;;;5054311;28;20484;-73
2021/08/06 10:24:56;;;;;;;2.92;1.73;;;22.80;99.90;;;;;;5034555;28;20032;-72
2021/08/06 10:27:27;;;;;;;2.08;1.77;;;22.90;99.90;;;;;;5051348;28;20048;-73
2021/08/06 10:30:19;;;;;;;2.67;1.77;;;22.90;99.90;;;;;;5046115;28;20021;-73
2021/08/06 10:33:07;;;;;;;4.10;1.67;;;23.20;99.90;;;;;;5046949;28;20041;-73
2021/08/06 10:35:52;;;;;;;3.03;1.67;;;23.20;99.90;;;;;;5056237;28;20565;-73
2021/08/06 10:38:41;;;;;;;2.15;1.33;;;23.30;99.90;;;;;;5050190;28;20026;-73
2021/08/06 10:41:14;;;;;;;2.85;1.30;;;23.50;99.90;;;;;;5058589;28;20040;-73
2021/08/06 10:43:41;;;;;;;;;;;23.40;99.90;;;;;;5061600;28;20017;-73
2021/08/06 10:46:08;;;;;;;2.72;1.50;;;23.60;99.90;;;;;;5029241;28;19913;-73
2021/08/06 10:48:42;;;;;;;2.88;1.63;;;23.80;99.90;;;;;;5058636;28;20032;-73
2021/08/06 10:51:18;;;;;;;3.05;1.30;;;23.80;99.90;;;;;;5069519;28;20017;-72
2021/08/06 10:53:56;;;;;;;3.10;1.38;;;23.90;99.90;;;;;;5064842;28;20121;-72
2021/08/06 10:56:30;;;;;;;2.28;1.40;;;23.90;99.90;;;;;;5053149;28;20083;-72
2021/08/06 10:59:14;;;;;;;2.67;1.30;;;23.80;99.90;;;;;;5027629;28;20017;-72
2021/08/06 11:01:41;;;;;;;3.20;1.50;;;23.60;99.90;;;;;;5061902;28;20036;-73
2021/08/06 11:04:19;;;;;;;3.03;1.10;;;23.30;99.90;;;;;;5066490;28;20472;-72
2021/08/06 11:06:46;;;;;;;3.70;1.70;;;23.10;99.90;;;;;;5053121;28;20025;-73
2021/08/06 11:09:27;;;;;;;1.52;1.42;;;23.20;99.90;;;;;;5051411;28;20117;-73
2021/08/06 11:12:06;;;;;;;2.53;1.40;;;23.50;99.90;;;;;;5066563;28;20027;-73
2021/08/06 11:14:34;;;;;;;2.60;1.30;;;23.80;99.90;;;;;;5055460;28;20104;-73
2021/08/06 11:17:18;;;;;;;1.77;1.20;;;23.90;99.90;;;;;;5052601;28;20112;-73
2021/08/06 11:20:04;;;;;;;6.18;1.60;;;24.00;99.90;;;;;;5061857;28;20416;-73
2021/08/06 11:22:33;;;;;;;2.65;1.10;;;23.90;99.90;;;;;;5054520;28;20083;-73
2021/08/06 11:25:02;;;;;;;1.48;1.10;;;23.80;99.90;;;;;;5052661;28;20036;-73
2021/08/06 11:27:42;;;;;;;1.88;1.10;;;23.70;99.90;;;;;;5059376;28;20473;-73
2021/08/06 11:30:12;;;;;;;1.42;1.00;;;23.70;99.90;;;;;;5062067;28;20024;-73
2021/08/06 11:32:50;;;;;;;4.20;1.20;;;23.80;99.90;;;;;;5059360;28;20083;-73
2021/08/06 11:35:18;;;;;;;2.05;1.38;;;23.70;99.90;;;;;;5052333;28;20597;-73
2021/08/06 11:37:49;;;;;;;1.63;1.33;;;23.60;99.90;;;;;;5064255;28;20111;-73
2021/08/06 11:40:16;;;;;;;2.60;1.05;;;23.70;99.90;;;;;;5064006;28;20476;-73
2021/08/06 11:42:42;;;;;;;3.40;1.52;;;23.90;99.90;;;;;;5062176;28;20060;-75
2021/08/06 11:45:11;;;;;;;8.75;1.25;;;24.40;99.90;;;;;;5058930;28;20376;-75
2021/08/06 11:47:45;;;;;;;2.55;1.35;;;24.50;99.90;;;;;;5061949;28;20024;-74
2021/08/06 11:50:14;;;;;;;4.03;1.10;;;24.80;99.90;;;;;;5052476;28;20021;-73
2021/08/06 11:52:48;;;;;;;2.03;1.13;;;25.20;99.90;;;;;;5065495;28;20124;-74
2021/08/06 11:55:19;;;;;;;1.90;0.98;;;25.10;99.90;;;;;;5057316;28;20064;-74
2021/08/06 11:57:51;;;;;;;1.90;0.90;;;25.00;99.90;;;;;;5050947;28;20017;-74
2021/08/06 12:00:22;;;;;;;1.75;0.85;;;24.80;99.90;;;;;;5055161;28;20033;-75
2021/08/06 12:03:09;;;;;;;3.40;1.05;;;24.70;99.90;;;;;;5067193;28;20029;-74
2021/08/06 12:05:37;;;;;;;2.40;1.05;;;24.60;99.90;;;;;;5052825;28;20033;-74
2021/08/06 12:08:26;;;;;;;3.40;0.85;;;24.60;99.90;;;;;;5026792;28;20048;-74
2021/08/06 12:11:16;;;;;;;2.70;0.85;;;24.60;99.90;;;;;;5063352;28;20040;-73
2021/08/06 12:13:50;;;;;;;0.65;0.65;;;24.60;99.90;;;;;;5053455;28;20041;-75
2021/08/06 12:16:21;;;;;;;0.75;0.65;;;24.80;99.90;;;;;;5051644;28;20026;-76
2021/08/06 12:18:51;;;;;;;1.95;0.73;;;25.10;99.90;;;;;;5055685;28;20159;-76
2021/08/06 12:21:27;;;;;;;1.80;0.77;;;25.00;99.90;;;;;;5054428;28;20036;-75
2021/08/06 12:23:57;;;;;;;1.83;0.60;;;25.00;99.90;;;;;;5061159;28;20017;-75
2021/08/06 12:26:35;;;;;;;3.10;0.75;;;25.10;99.90;;;;;;5056991;28;20057;-75
2021/08/06 12:29:19;;;;;;;2.05;0.80;;;25.40;99.90;;;;;;5054672;28;20048;-76
2021/08/06 12:31:53;;;;;;;3.63;1.25;;;25.40;99.90;;;;;;5055408;28;20078;-74
2021/08/06 12:34:24;;;;;;;1.83;0.88;;;25.30;99.90;;;;;;5054593;28;20034;-74
2021/08/06 12:37:07;;;;;;;1.88;0.68;;;25.10;99.90;;;;;;5057196;28;20052;-75
2021/08/06 12:39:36;;;;;;;1.60;1.25;;;24.70;99.90;;;;;;5064377;28;20480;-75
2021/08/06 12:42:20;;;;;;;2.53;0.80;;;24.20;99.90;;;;;;5052064;28;20492;-76
2021/08/06 12:45:05;;;;;;;2.17;0.77;;;24.00;99.90;;;;;;5054374;28;20052;-75
2021/08/06 12:47:55;;;;;;;0.77;0.70;;;24.10;99.90;;;;;;5062605;28;20035;-75
2021/08/06 12:50:21;;;;;;;0.65;0.65;;;24.20;99.90;;;;;;5052188;28;20116;-75
2021/08/06 12:53:17;;;;;;;1.00;0.70;;;24.20;99.90;;;;;;5051810;28;20121;-75
2021/08/06 12:55:43;;;;;;;1.48;0.90;;;24.30;99.90;;;;;;5042564;28;20040;-74